createdAt,value
2022-10-15T00:00:52.038Z,19.60
2022-10-15T00:03:19.169Z,19.70
2022-10-15T00:05:46.292Z,19.70
2022-10-15T00:08:13.827Z,19.70
2022-10-15T00:10:40.852Z,19.60
2022-10-15T00:13:07.905Z,19.60
2022-10-15T00:15:37.143Z,19.60
2022-10-15T00:18:04.287Z,19.60
2022-10-15T00:20:31.597Z,19.70
2022-10-15T00:22:58.646Z,19.60
2022-10-15T00:25:25.687Z,19.60
2022-10-15T00:27:52.716Z,19.60
2022-10-15T00:30:19.756Z,19.60
2022-10-15T00:32:46.771Z,19.60
2022-10-15T00:35:13.808Z,19.60
2022-10-15T00:37:40.852Z,19.60
2022-10-15T00:40:09.501Z,19.60
2022-10-15T00:42:36.524Z,19.60
2022-10-15T00:45:03.842Z,19.60
2022-10-15T00:47:48.952Z,19.60
2022-10-15T00:50:20.326Z,19.60
2022-10-15T00:53:09.301Z,19.60
2022-10-15T00:55:42.624Z,19.60
2022-10-15T00:58:28.179Z,19.60
2022-10-15T01:00:56.114Z,19.60
2022-10-15T01:03:23.670Z,19.70
2022-10-15T01:05:52.377Z,19.60
2022-10-15T01:08:19.869Z,19.60
2022-10-15T01:11:08.866Z,19.60
2022-10-15T01:13:50.621Z,19.60
2022-10-15T01:16:29.474Z,19.60
2022-10-15T01:19:13.293Z,19.60
2022-10-15T01:21:57.369Z,19.60
2022-10-15T01:25:03.042Z,19.60
2022-10-15T01:27:35.041Z,19.60
2022-10-15T01:30:38.798Z,19.60
2022-10-15T01:33:24.661Z,19.60
2022-10-15T01:36:06.280Z,19.70
2022-10-15T01:38:44.094Z,19.70
2022-10-15T01:41:32.181Z,19.70
2022-10-15T01:44:05.037Z,19.60
2022-10-15T01:46:42.637Z,19.60
2022-10-15T01:49:12.213Z,19.60
2022-10-15T01:51:41.761Z,19.60
2022-10-15T01:54:14.458Z,19.60
2022-10-15T01:56:49.471Z,19.50
2022-10-15T01:59:23.917Z,19.50
2022-10-15T02:01:51.102Z,19.50
2022-10-15T02:04:29.490Z,19.50
2022-10-15T02:07:29.406Z,19.50
2022-10-15T02:10:10.139Z,19.50
2022-10-15T02:12:56.374Z,19.60
2022-10-15T02:15:30.471Z,19.60
2022-10-15T02:18:13.519Z,19.60
2022-10-15T02:21:06.727Z,19.60
2022-10-15T02:23:58.098Z,19.60
2022-10-15T02:26:29.911Z,19.60
2022-10-15T02:29:00.758Z,19.60
2022-10-15T02:31:30.594Z,19.60
2022-10-15T02:34:03.127Z,19.60
2022-10-15T02:36:31.043Z,19.60
2022-10-15T02:39:00.237Z,19.60
2022-10-15T02:41:29.301Z,19.60
2022-10-15T02:43:56.552Z,19.60
2022-10-15T02:46:23.599Z,19.60
2022-10-15T02:48:50.619Z,19.60
2022-10-15T02:51:17.669Z,19.60
2022-10-15T02:53:44.771Z,19.60
2022-10-15T02:56:11.872Z,19.50
2022-10-15T02:58:38.956Z,19.60
2022-10-15T03:01:06.216Z,19.60
2022-10-15T03:03:33.843Z,19.60
2022-10-15T03:06:00.975Z,19.60
2022-10-15T03:08:28.672Z,19.70
2022-10-15T03:10:55.707Z,19.70
2022-10-15T03:13:22.725Z,19.70
2022-10-15T03:15:49.752Z,19.70
2022-10-15T03:18:16.812Z,19.70
2022-10-15T03:20:43.927Z,19.70
2022-10-15T03:23:11.733Z,19.70
2022-10-15T03:25:38.823Z,19.70
2022-10-15T03:28:05.844Z,19.70
2022-10-15T03:30:32.885Z,19.60
2022-10-15T03:32:59.914Z,19.60
2022-10-15T03:35:26.933Z,19.60
2022-10-15T03:37:53.992Z,19.50
2022-10-15T03:40:21.052Z,19.50
2022-10-15T03:42:51.775Z,19.50
2022-10-15T03:45:19.656Z,19.50
2022-10-15T03:47:46.800Z,19.50
2022-10-15T03:50:13.937Z,19.50
2022-10-15T03:52:41.114Z,19.50
2022-10-15T03:55:09.717Z,19.50
2022-10-15T03:57:38.337Z,19.50
2022-10-15T04:00:07.921Z,19.60
2022-10-15T04:02:34.998Z,19.60
2022-10-15T04:05:02.118Z,19.60
2022-10-15T04:07:29.169Z,19.60
2022-10-15T04:09:56.230Z,19.60
2022-10-15T04:12:23.542Z,19.60
2022-10-15T04:14:50.845Z,19.60
2022-10-15T04:17:17.917Z,19.60
2022-10-15T04:19:45.042Z,19.70
2022-10-15T04:22:12.102Z,19.60
2022-10-15T04:24:39.332Z,19.60
2022-10-15T04:27:06.376Z,19.70
2022-10-15T04:29:33.538Z,19.70
2022-10-15T04:32:00.614Z,19.60
2022-10-15T04:34:28.522Z,19.70
2022-10-15T04:36:55.933Z,19.70
2022-10-15T04:39:22.958Z,19.70
2022-10-15T04:41:50.019Z,19.70
2022-10-15T04:44:17.151Z,19.70
2022-10-15T04:46:44.173Z,19.60
2022-10-15T04:49:11.231Z,19.60
2022-10-15T04:51:38.351Z,19.60
2022-10-15T04:54:05.461Z,19.60
2022-10-15T04:56:32.543Z,19.50
2022-10-15T04:58:59.719Z,19.60
2022-10-15T05:01:26.763Z,19.70
2022-10-15T05:03:53.794Z,19.50
2022-10-15T05:06:22.186Z,19.50
2022-10-15T05:08:49.886Z,19.60
2022-10-15T05:11:22.509Z,19.60
2022-10-15T05:13:50.472Z,19.60
2022-10-15T05:16:25.769Z,19.50
2022-10-15T05:18:57.291Z,19.50
2022-10-15T05:21:24.963Z,19.50
2022-10-15T05:23:52.160Z,19.50
2022-10-15T05:26:22.241Z,19.50
2022-10-15T05:28:50.443Z,19.50
2022-10-15T05:31:19.725Z,19.50
2022-10-15T05:33:51.380Z,19.60
2022-10-15T05:36:21.675Z,19.60
2022-10-15T05:38:51.479Z,19.60
2022-10-15T05:41:19.681Z,19.60
2022-10-15T05:43:47.968Z,19.60
2022-10-15T05:46:15.413Z,19.60
2022-10-15T05:48:42.494Z,19.60
2022-10-15T05:51:12.980Z,19.60
2022-10-15T05:53:40.546Z,19.60
2022-10-15T05:56:08.386Z,19.60
2022-10-15T05:58:37.690Z,19.70
2022-10-15T06:01:07.974Z,19.70
2022-10-15T06:03:35.861Z,19.60
2022-10-15T06:06:03.388Z,19.60
2022-10-15T06:08:31.304Z,19.60
2022-10-15T06:11:06.798Z,19.60
2022-10-15T06:13:40.262Z,19.60
2022-10-15T06:16:08.026Z,19.60
2022-10-15T06:18:36.105Z,19.60
2022-10-15T06:21:03.194Z,19.60
2022-10-15T06:23:30.599Z,19.50
2022-10-15T06:26:02.151Z,19.60
2022-10-15T06:28:29.244Z,19.60
2022-10-15T06:30:59.477Z,19.60
2022-10-15T06:33:27.295Z,19.60
2022-10-15T06:35:55.249Z,19.60
2022-10-15T06:38:22.345Z,19.60
2022-10-15T06:40:49.394Z,19.70
2022-10-15T06:43:16.463Z,19.60
2022-10-15T06:45:44.813Z,19.60
2022-10-15T06:48:11.884Z,19.60
2022-10-15T06:50:39.634Z,19.60
2022-10-15T06:53:07.006Z,19.60
2022-10-15T06:55:34.633Z,19.70
2022-10-15T06:58:01.936Z,19.60
2022-10-15T07:00:29.592Z,19.60
2022-10-15T07:02:56.706Z,19.60
2022-10-15T07:05:23.755Z,19.60
2022-10-15T07:07:55.202Z,19.50
2022-10-15T07:10:23.605Z,19.60
2022-10-15T07:12:50.783Z,19.60
2022-10-15T07:15:18.964Z,19.60
2022-10-15T07:17:53.174Z,19.60
2022-10-15T07:20:23.552Z,19.60
2022-10-15T07:22:59.890Z,19.60
2022-10-15T07:25:27.919Z,19.60
2022-10-15T07:27:55.714Z,19.60
2022-10-15T07:30:23.598Z,19.60
2022-10-15T07:32:50.643Z,19.60
2022-10-15T07:35:17.687Z,19.60
2022-10-15T07:37:44.715Z,19.70
2022-10-15T07:40:12.250Z,19.60
2022-10-15T07:42:40.897Z,19.60
2022-10-15T07:45:08.347Z,19.60
2022-10-15T07:47:35.390Z,19.70
2022-10-15T07:50:02.540Z,19.70
2022-10-15T07:52:31.025Z,19.70
2022-10-15T07:54:58.172Z,19.70
2022-10-15T07:57:25.289Z,19.60
2022-10-15T07:59:52.352Z,19.60
2022-10-15T08:02:20.939Z,19.60
2022-10-15T08:04:48.471Z,19.60
2022-10-15T08:07:15.692Z,19.60
2022-10-15T08:09:42.801Z,19.60
2022-10-15T08:12:10.012Z,19.60
2022-10-15T08:14:37.316Z,19.60
2022-10-15T08:17:05.545Z,19.60
2022-10-15T08:19:33.328Z,19.60
2022-10-15T08:22:00.472Z,19.60
2022-10-15T08:24:27.572Z,19.70
2022-10-15T08:26:54.642Z,19.70
2022-10-15T08:29:21.660Z,19.70
2022-10-15T08:31:49.360Z,19.70
2022-10-15T08:34:16.936Z,19.60
2022-10-15T08:36:43.977Z,19.60
2022-10-15T08:39:11.323Z,19.60
2022-10-15T08:41:56.085Z,19.60
2022-10-15T08:44:29.878Z,19.60
2022-10-15T08:47:07.254Z,19.60
2022-10-15T08:49:50.032Z,19.60
2022-10-15T08:52:17.200Z,19.70
2022-10-15T08:54:44.485Z,19.60
2022-10-15T08:57:22.404Z,19.60
2022-10-15T09:00:01.630Z,19.60
2022-10-15T09:02:47.913Z,19.70
2022-10-15T09:05:35.377Z,19.70
2022-10-15T09:08:25.825Z,19.70
2022-10-15T09:10:59.513Z,19.70
2022-10-15T09:16:15.317Z,19.70
2022-10-15T09:18:46.358Z,19.70
2022-10-15T09:21:13.988Z,19.70
2022-10-15T09:23:43.678Z,19.60
2022-10-15T09:26:29.168Z,19.60
2022-10-15T09:29:17.549Z,19.60
2022-10-15T09:32:13.338Z,19.60
2022-10-15T09:35:01.809Z,19.60
2022-10-15T09:38:05.690Z,19.60
2022-10-15T09:40:53.986Z,19.70
2022-10-15T09:43:31.539Z,19.70
2022-10-15T09:45:58.675Z,19.70
2022-10-15T09:48:28.129Z,19.70
2022-10-15T09:51:06.779Z,19.70
2022-10-15T09:53:45.701Z,19.70
2022-10-15T09:56:19.483Z,19.70
2022-10-15T09:58:58.017Z,19.70
2022-10-15T10:01:30.629Z,19.70
2022-10-15T10:04:17.855Z,19.70
2022-10-15T10:06:51.130Z,19.70
2022-10-15T10:09:31.716Z,19.80
2022-10-15T10:12:01.955Z,19.70
2022-10-15T10:14:54.350Z,19.80
2022-10-15T10:17:24.045Z,19.70
2022-10-15T10:20:09.590Z,19.70
2022-10-15T10:22:59.058Z,19.80
2022-10-15T10:25:40.852Z,19.80
2022-10-15T10:28:11.625Z,19.80
2022-10-15T10:30:51.687Z,19.80
2022-10-15T10:33:39.644Z,19.80
2022-10-15T10:36:18.041Z,19.80
2022-10-15T10:39:01.993Z,19.80
2022-10-15T10:41:55.428Z,19.80
2022-10-15T10:44:36.568Z,19.80
2022-10-15T10:47:11.392Z,19.80
2022-10-15T10:49:48.760Z,19.90
2022-10-15T10:52:28.886Z,19.90
2022-10-15T10:55:00.462Z,19.90
2022-10-15T10:57:50.613Z,19.90
2022-10-15T11:00:39.647Z,19.90
2022-10-15T11:03:17.053Z,19.90
2022-10-15T11:05:44.860Z,19.90
2022-10-15T11:08:41.360Z,19.90
2022-10-15T11:11:24.174Z,19.90
2022-10-15T11:14:01.766Z,19.90
2022-10-15T11:16:49.417Z,19.90
2022-10-15T11:19:54.728Z,19.80
2022-10-15T11:22:32.136Z,19.80
2022-10-15T11:25:14.135Z,19.80
2022-10-15T11:27:56.717Z,19.90
2022-10-15T11:30:38.476Z,19.90
2022-10-15T11:33:24.294Z,19.90
2022-10-15T11:36:16.869Z,19.90
2022-10-15T11:38:48.201Z,19.90
2022-10-15T11:41:43.046Z,19.90
2022-10-15T11:44:28.639Z,19.90
2022-10-15T11:47:34.750Z,19.90
2022-10-15T11:50:46.748Z,19.90
2022-10-15T11:53:41.015Z,19.90
2022-10-15T11:56:26.648Z,19.90
2022-10-15T11:59:09.855Z,19.90
2022-10-15T12:01:46.532Z,19.80
2022-10-15T12:04:20.058Z,19.80
2022-10-15T12:06:51.391Z,19.90
2022-10-15T12:09:30.275Z,19.90
2022-10-15T12:12:31.268Z,19.80
2022-10-15T12:15:14.475Z,19.80
2022-10-15T12:18:07.347Z,19.80
2022-10-15T12:20:34.518Z,19.70
2022-10-15T12:23:03.755Z,19.80
2022-10-15T12:25:36.703Z,19.70
2022-10-15T12:28:05.795Z,19.80
2022-10-15T12:30:34.684Z,19.90
2022-10-15T12:33:03.927Z,19.90
2022-10-15T12:35:35.213Z,19.90
2022-10-15T12:38:21.108Z,19.90
2022-10-15T12:41:01.281Z,20.00
2022-10-15T12:43:29.715Z,20.00
2022-10-15T12:46:00.899Z,20.00
2022-10-15T12:48:33.896Z,19.90
2022-10-15T12:51:16.290Z,19.90
2022-10-15T12:53:45.485Z,19.90
2022-10-15T12:56:20.431Z,20.00
2022-10-15T12:58:48.376Z,19.90
2022-10-15T13:01:15.473Z,19.90
2022-10-15T13:03:48.726Z,19.90
2022-10-15T13:06:22.073Z,20.00
2022-10-15T13:08:51.188Z,20.00
2022-10-15T13:11:30.914Z,19.90
2022-10-15T13:14:15.745Z,20.00
2022-10-15T13:16:44.757Z,20.00
2022-10-15T13:19:39.528Z,19.90
2022-10-15T13:22:22.130Z,19.90
2022-10-15T13:24:49.356Z,19.80
2022-10-15T13:27:22.109Z,19.80
2022-10-15T13:30:17.205Z,19.80
2022-10-15T13:32:50.072Z,19.70
2022-10-15T13:35:29.148Z,19.60
2022-10-15T13:37:59.958Z,19.60
2022-10-15T13:40:29.881Z,19.60
2022-10-15T13:43:02.010Z,19.50
2022-10-15T13:45:29.720Z,19.60
2022-10-15T13:47:56.833Z,19.60
2022-10-15T13:50:30.189Z,19.50
2022-10-15T13:53:09.323Z,19.50
2022-10-15T13:55:39.982Z,19.40
2022-10-15T13:58:27.876Z,19.40
2022-10-15T14:01:03.268Z,19.30
2022-10-15T14:03:32.112Z,19.40
2022-10-15T14:06:29.473Z,19.40
2022-10-15T14:08:59.967Z,19.40
2022-10-15T14:11:29.894Z,19.40
2022-10-15T14:13:58.887Z,19.50
2022-10-15T14:16:39.906Z,19.50
2022-10-15T14:19:07.484Z,19.50
2022-10-15T14:21:35.830Z,19.50
2022-10-15T14:24:21.571Z,19.50
2022-10-15T14:26:49.046Z,19.50
2022-10-15T14:29:24.622Z,19.50
2022-10-15T14:31:51.702Z,19.50
2022-10-15T14:34:34.522Z,19.50
2022-10-15T14:37:03.293Z,19.40
2022-10-15T14:39:34.194Z,19.40
2022-10-15T14:42:03.874Z,19.40
2022-10-15T14:44:45.087Z,19.40
2022-10-15T14:47:22.785Z,19.40
2022-10-15T14:49:53.815Z,19.40
2022-10-15T14:52:22.711Z,19.40
2022-10-15T14:55:01.847Z,19.40
2022-10-15T14:57:34.567Z,19.40
2022-10-15T15:00:02.357Z,19.40
2022-10-15T15:02:30.014Z,19.40
2022-10-15T15:05:23.717Z,19.40
2022-10-15T15:07:51.613Z,19.40
2022-10-15T15:10:19.179Z,19.40
2022-10-15T15:12:50.711Z,19.40
2022-10-15T15:15:20.560Z,19.40
2022-10-15T15:17:48.688Z,19.30
2022-10-15T15:20:20.002Z,19.30
2022-10-15T15:22:53.080Z,19.40
2022-10-15T15:25:40.336Z,19.40
2022-10-15T15:28:14.016Z,19.30
2022-10-15T15:30:43.583Z,19.40
2022-10-15T15:33:12.308Z,19.30
2022-10-15T15:35:56.576Z,19.30
2022-10-15T15:38:30.755Z,19.30
2022-10-15T15:41:12.156Z,19.30
2022-10-15T15:43:39.552Z,19.30
2022-10-15T15:46:06.645Z,19.30
2022-10-15T15:48:33.800Z,19.30
2022-10-15T15:51:18.998Z,19.40
2022-10-15T15:53:46.081Z,19.30
2022-10-15T15:56:13.522Z,19.30
2022-10-15T15:58:40.804Z,19.30
2022-10-15T16:01:08.009Z,19.30
2022-10-15T16:03:35.290Z,19.30
2022-10-15T16:06:04.409Z,19.30
2022-10-15T16:08:31.478Z,19.30
2022-10-15T16:11:02.907Z,19.30
2022-10-15T16:13:29.953Z,19.20
2022-10-15T16:15:57.112Z,19.20
2022-10-15T16:18:24.613Z,19.20
2022-10-15T16:20:51.802Z,19.30
2022-10-15T16:23:18.969Z,19.40
2022-10-15T16:25:46.215Z,19.50
2022-10-15T16:28:13.306Z,19.60
2022-10-15T16:30:40.333Z,19.70
2022-10-15T16:35:36.142Z,19.80
2022-10-15T16:38:03.229Z,19.90
2022-10-15T16:40:30.267Z,19.90
2022-10-15T16:42:57.366Z,19.90
2022-10-15T16:45:24.470Z,19.90
2022-10-15T16:47:51.554Z,20.00
2022-10-15T16:50:18.681Z,20.00
2022-10-15T16:52:45.725Z,20.00
2022-10-15T16:55:12.862Z,20.10
2022-10-15T16:57:41.263Z,20.00
2022-10-15T17:00:09.067Z,20.00
2022-10-15T17:02:37.240Z,20.00
2022-10-15T17:05:04.570Z,20.00
2022-10-15T17:07:31.630Z,20.00
2022-10-15T17:09:58.667Z,20.00
2022-10-15T17:12:25.975Z,20.00
2022-10-15T17:14:53.157Z,20.00
2022-10-15T17:17:20.253Z,20.00
2022-10-15T17:19:47.371Z,19.90
2022-10-15T17:22:14.448Z,19.90
2022-10-15T17:24:41.483Z,19.90
2022-10-15T17:27:08.520Z,19.90
2022-10-15T17:29:35.611Z,19.90
2022-10-15T17:32:02.956Z,19.90
2022-10-15T17:34:30.023Z,19.90
2022-10-15T17:36:57.383Z,19.90
2022-10-15T17:39:24.463Z,19.90
2022-10-15T17:41:51.978Z,19.90
2022-10-15T17:44:19.971Z,19.90
2022-10-15T17:49:19.080Z,19.90
2022-10-15T17:51:47.005Z,19.90
2022-10-15T17:54:14.242Z,19.90
2022-10-15T17:56:41.346Z,19.90
2022-10-15T17:59:11.372Z,19.90
2022-10-15T18:04:29.575Z,19.90
2022-10-15T18:06:56.877Z,19.90
2022-10-15T18:09:25.749Z,19.90
2022-10-15T18:11:52.797Z,19.90
2022-10-15T18:16:47.995Z,19.90
2022-10-15T18:19:15.124Z,19.90
2022-10-15T18:21:46.925Z,19.90
2022-10-15T18:24:19.935Z,19.80
2022-10-15T18:26:47.434Z,19.90
2022-10-15T18:29:14.636Z,19.90
2022-10-15T18:31:41.726Z,19.90
2022-10-15T18:34:08.887Z,19.80
2022-10-15T18:36:37.676Z,19.80
2022-10-15T18:39:04.713Z,19.90
2022-10-15T18:41:33.670Z,19.80
2022-10-15T18:44:06.604Z,19.80
2022-10-15T18:46:34.742Z,19.80
2022-10-15T18:49:02.689Z,19.80
2022-10-15T18:51:30.776Z,19.90
2022-10-15T18:53:59.151Z,19.90
2022-10-15T18:56:26.888Z,19.80
2022-10-15T18:58:54.251Z,19.90
2022-10-15T19:01:30.363Z,19.90
2022-10-15T19:03:59.226Z,19.90
2022-10-15T19:06:30.782Z,19.90
2022-10-15T19:08:58.827Z,19.90
2022-10-15T19:11:26.356Z,19.90
2022-10-15T19:13:55.695Z,19.90
2022-10-15T19:16:22.974Z,19.90
2022-10-15T19:18:50.030Z,19.90
2022-10-15T19:21:17.108Z,19.90
2022-10-15T19:23:44.366Z,19.90
2022-10-15T19:26:13.103Z,19.90
2022-10-15T19:28:40.274Z,19.90
2022-10-15T19:31:09.616Z,19.90
2022-10-15T19:33:37.721Z,19.90
2022-10-15T19:36:05.282Z,19.90
2022-10-15T19:38:32.355Z,19.90
2022-10-15T19:41:03.912Z,19.90
2022-10-15T19:43:30.992Z,19.90
2022-10-15T19:46:03.062Z,19.90
2022-10-15T19:48:30.405Z,19.90
2022-10-15T19:51:00.540Z,19.90
2022-10-15T19:53:27.808Z,19.90
2022-10-15T19:56:04.080Z,19.90
2022-10-15T19:58:31.793Z,19.90
2022-10-15T20:01:01.417Z,19.90
2022-10-15T20:03:30.339Z,19.90
2022-10-15T20:05:57.752Z,19.90
2022-10-15T20:08:25.933Z,19.90
2022-10-15T20:10:53.493Z,19.90
2022-10-15T20:13:22.543Z,19.90
2022-10-15T20:15:53.881Z,19.80
2022-10-15T20:18:21.722Z,19.90
2022-10-15T20:20:48.888Z,19.90
2022-10-15T20:23:17.353Z,19.90
2022-10-15T20:25:45.269Z,19.80
2022-10-15T20:28:13.961Z,19.90
2022-10-15T20:30:41.385Z,19.90
2022-10-15T20:33:09.169Z,19.90
2022-10-15T20:35:37.408Z,19.90
2022-10-15T20:38:05.185Z,19.90
2022-10-15T20:40:33.632Z,19.90
2022-10-15T20:43:01.022Z,19.90
2022-10-15T20:45:34.361Z,19.90
2022-10-15T20:48:03.329Z,19.90
2022-10-15T20:50:33.842Z,19.90
2022-10-15T20:53:02.030Z,19.80
2022-10-15T20:55:29.174Z,19.70
2022-10-15T20:57:56.323Z,19.70
2022-10-15T21:00:23.621Z,19.60
2022-10-15T21:02:50.714Z,19.60
2022-10-15T21:05:17.785Z,19.60
2022-10-15T21:07:44.795Z,19.60
2022-10-15T21:10:11.841Z,19.60
2022-10-15T21:12:39.153Z,19.70
2022-10-15T21:15:06.833Z,19.70
2022-10-15T21:17:33.880Z,19.70
2022-10-15T21:20:00.918Z,19.80
2022-10-15T21:22:28.049Z,19.80
2022-10-15T21:24:55.081Z,19.80
2022-10-15T21:27:22.133Z,19.80
2022-10-15T21:29:49.489Z,19.90
2022-10-15T21:32:16.615Z,19.90
2022-10-15T21:34:44.188Z,19.90
2022-10-15T21:37:11.538Z,19.90
2022-10-15T21:39:38.605Z,19.80
2022-10-15T21:42:05.686Z,19.90
2022-10-15T21:44:33.457Z,19.90
2022-10-15T21:47:00.569Z,19.90
2022-10-15T21:49:27.610Z,19.90
2022-10-15T21:51:54.642Z,19.90
2022-10-15T21:54:21.773Z,20.00
2022-10-15T21:56:48.807Z,19.90
2022-10-15T21:59:15.914Z,19.90
2022-10-15T22:01:45.436Z,20.00
2022-10-15T22:04:12.601Z,19.90
2022-10-15T22:06:40.431Z,19.90
2022-10-15T22:09:09.666Z,19.90
2022-10-15T22:11:39.459Z,19.90
2022-10-15T22:14:09.470Z,19.90
2022-10-15T22:16:38.431Z,19.90
2022-10-15T22:19:08.449Z,19.90
2022-10-15T22:21:37.236Z,20.00
2022-10-15T22:24:07.950Z,19.90
2022-10-15T22:26:38.151Z,19.90
2022-10-15T22:29:07.427Z,19.90
2022-10-15T22:31:34.801Z,20.00
2022-10-15T22:34:02.094Z,19.90
2022-10-15T22:36:31.178Z,19.90
2022-10-15T22:39:04.846Z,19.90
2022-10-15T22:41:35.260Z,19.90
2022-10-15T22:44:02.428Z,19.90
2022-10-15T22:46:33.742Z,19.80
2022-10-15T22:49:00.992Z,19.90
2022-10-15T22:51:28.827Z,19.90
2022-10-15T22:53:57.419Z,19.90
2022-10-15T22:56:25.864Z,19.80
2022-10-15T22:58:54.461Z,19.90
2022-10-15T23:01:30.147Z,19.90
2022-10-15T23:04:01.567Z,19.90
2022-10-15T23:06:29.964Z,19.80
2022-10-15T23:08:58.528Z,19.80
2022-10-15T23:11:31.937Z,19.90
2022-10-15T23:14:09.476Z,19.90
2022-10-15T23:16:39.209Z,19.90
2022-10-15T23:19:11.648Z,19.90
2022-10-15T23:21:42.574Z,19.80
2022-10-15T23:24:09.917Z,19.90
2022-10-15T23:26:38.298Z,19.90
2022-10-15T23:29:07.316Z,19.80
2022-10-15T23:31:35.864Z,19.90
2022-10-15T23:34:04.498Z,19.90
2022-10-15T23:36:33.789Z,19.90
2022-10-15T23:39:04.018Z,19.90
2022-10-15T23:41:31.789Z,19.80
2022-10-15T23:43:59.994Z,19.80
2022-10-15T23:46:27.174Z,19.80
2022-10-15T23:48:54.254Z,19.80
2022-10-15T23:51:29.256Z,19.80
2022-10-15T23:53:58.347Z,19.80
2022-10-15T23:56:26.565Z,19.80
2022-10-15T23:58:59.237Z,19.80
